Time;durP1;ratioP1;P1;durP2;ratioP2;P2;SDS_P1;SDS_P2;PMS_P1;PMS_P2;Temp;Humidity;BMP_temperature;BMP_pressure;BME280_temperature;BME280_humidity;BME280_pressure;Samples;Min_cycle;Max_cycle;Signal;HPM_P1;HPM_P2
2023/02/19 00:01:31;;;;;;;6.47;4.03;;;11.50;84.70;;;;;;5008119;28;20475;-77
2023/02/19 00:03:59;;;;;;;7.27;4.00;;;11.50;84.30;;;;;;5023136;28;20467;-77
2023/02/19 00:06:26;;;;;;;8.00;4.40;;;11.50;83.80;;;;;;5025524;28;20442;-76
2023/02/19 00:08:52;;;;;;;5.63;3.57;;;11.50;83.70;;;;;;5026012;28;20423;-76
2023/02/19 00:11:20;;;;;;;7.23;4.30;;;11.60;83.70;;;;;;5026459;28;20428;-77
2023/02/19 00:13:49;;;;;;;5.50;3.37;;;11.60;83.40;;;;;;5024939;28;20652;-77
2023/02/19 00:16:21;;;;;;;5.23;3.67;;;11.50;82.40;;;;;;5008748;28;20427;-77
2023/02/19 00:18:47;;;;;;;4.37;3.47;;;11.60;82.50;;;;;;5025749;28;20456;-77
2023/02/19 00:21:13;;;;;;;3.80;2.97;;;11.50;82.10;;;;;;5025411;28;20986;-77
2023/02/19 00:23:39;;;;;;;5.03;3.07;;;11.50;81.40;;;;;;5021250;28;20181;-75
2023/02/19 00:26:10;;;;;;;4.93;2.70;;;11.60;81.40;;;;;;5025396;28;20427;-77
2023/02/19 00:28:36;;;;;;;3.50;2.50;;;11.60;80.90;;;;;;5010317;28;20185;-76
2023/02/19 00:31:14;;;;;;;4.80;2.93;;;11.60;80.00;;;;;;5027673;28;20435;-76
2023/02/19 00:33:39;;;;;;;3.87;2.70;;;11.60;80.20;;;;;;5004499;28;20507;-76
2023/02/19 00:36:05;;;;;;;4.77;2.83;;;11.70;80.20;;;;;;5024261;28;20523;-77
2023/02/19 00:38:34;;;;;;;5.20;2.47;;;11.70;79.60;;;;;;5031913;28;20189;-77
2023/02/19 00:41:17;;;;;;;3.30;2.43;;;11.60;79.60;;;;;;5040522;28;21208;-75
2023/02/19 00:44:03;;;;;;;3.00;2.40;;;11.60;79.30;;;;;;5031458;28;20422;-74
2023/02/19 00:46:34;;;;;;;3.80;2.40;;;11.60;79.50;;;;;;5030454;28;20431;-75
2023/02/19 00:49:01;;;;;;;4.57;2.80;;;11.60;79.50;;;;;;5032370;28;20424;-76
2023/02/19 00:51:29;;;;;;;3.97;2.43;;;11.60;79.20;;;;;;5028159;28;20515;-77
2023/02/19 00:53:55;;;;;;;3.37;2.57;;;11.60;79.50;;;;;;5033485;28;20464;-76
2023/02/19 00:56:21;;;;;;;4.57;2.60;;;11.60;79.30;;;;;;5011201;28;20498;-75
2023/02/19 00:58:47;;;;;;;3.00;2.30;;;11.50;79.50;;;;;;5034767;28;20212;-76
2023/02/19 01:01:13;;;;;;;3.93;1.90;;;11.50;79.50;;;;;;5028251;28;20464;-77
2023/02/19 01:03:39;;;;;;;3.20;2.20;;;11.50;79.60;;;;;;5034288;28;20429;-76
2023/02/19 01:06:07;;;;;;;3.97;2.63;;;11.60;79.50;;;;;;5026048;28;20431;-77
2023/02/19 01:08:33;;;;;;;4.27;2.77;;;11.60;79.50;;;;;;5025847;28;20416;-75
2023/02/19 01:10:59;;;;;;;2.87;2.50;;;11.50;79.50;;;;;;5029990;28;20808;-75
2023/02/19 01:13:25;;;;;;;4.83;2.40;;;11.40;79.70;;;;;;5039640;28;20506;-76
2023/02/19 01:15:51;;;;;;;3.50;2.70;;;11.40;80.00;;;;;;5036199;28;20209;-77
2023/02/19 01:18:17;;;;;;;3.10;2.37;;;11.40;79.90;;;;;;5034952;28;20439;-76
2023/02/19 01:20:43;;;;;;;3.03;2.40;;;11.40;80.00;;;;;;5034175;28;20864;-77
2023/02/19 01:23:12;;;;;;;4.00;2.20;;;11.30;80.00;;;;;;5027306;28;20528;-77
2023/02/19 01:25:40;;;;;;;4.93;2.57;;;11.40;79.90;;;;;;5028204;28;20868;-76
2023/02/19 01:28:05;;;;;;;3.13;2.40;;;11.40;79.90;;;;;;5028933;28;20432;-76
2023/02/19 01:30:37;;;;;;;3.93;2.80;;;11.40;79.70;;;;;;5034882;28;20796;-76
2023/02/19 01:33:04;;;;;;;3.70;2.43;;;11.40;79.60;;;;;;5034361;28;20181;-77
2023/02/19 01:35:30;;;;;;;4.73;2.60;;;11.40;79.50;;;;;;5037562;28;20458;-77
2023/02/19 01:37:55;;;;;;;3.30;2.07;;;11.40;79.60;;;;;;5034239;28;20448;-77
2023/02/19 01:40:21;;;;;;;4.67;2.60;;;11.40;79.30;;;;;;5035966;28;20185;-78
2023/02/19 01:42:47;;;;;;;3.53;2.60;;;11.40;79.20;;;;;;5035776;28;20219;-77
2023/02/19 01:45:28;;;;;;;3.87;2.60;;;11.40;79.50;;;;;;5027393;28;20259;-78
2023/02/19 01:48:02;;;;;;;3.53;2.30;;;11.40;79.30;;;;;;5036032;28;20525;-78
2023/02/19 01:50:31;;;;;;;3.57;2.43;;;11.40;79.50;;;;;;5019338;28;20795;-77
2023/02/19 01:53:03;;;;;;;2.60;1.93;;;11.40;79.50;;;;;;5016217;28;20432;-77
2023/02/19 01:55:28;;;;;;;2.77;2.10;;;11.40;79.50;;;;;;5030914;28;20527;-77
2023/02/19 01:57:55;;;;;;;3.87;2.30;;;11.40;79.50;;;;;;5031584;28;20451;-79
2023/02/19 02:00:23;;;;;;;2.90;2.10;;;11.30;79.30;;;;;;5033296;28;20212;-78
2023/02/19 02:02:51;;;;;;;2.80;2.00;;;11.30;79.50;;;;;;5017558;28;21010;-78
2023/02/19 02:05:25;;;;;;;2.87;1.93;;;11.30;79.50;;;;;;5037266;28;20455;-78
2023/02/19 02:10:35;;;;;;;2.73;1.80;;;11.30;79.60;;;;;;5051714;28;20432;-77
2023/02/19 02:13:00;;;;;;;3.10;2.00;;;11.30;79.70;;;;;;5037500;28;21102;-79
2023/02/19 02:15:35;;;;;;;2.47;1.90;;;11.40;79.60;;;;;;5048862;28;20690;-75
2023/02/19 02:18:29;;;;;;;3.47;1.93;;;11.30;79.60;;;;;;5037889;28;20315;-78
2023/02/19 02:21:34;;;;;;;2.70;1.67;;;11.40;79.50;;;;;;4953291;28;20439;-78
2023/02/19 02:24:12;;;;;;;2.63;1.90;;;11.30;79.70;;;;;;4950512;28;20959;-78
2023/02/19 02:27:24;;;;;;;2.63;2.00;;;11.30;80.30;;;;;;4958149;28;20514;-77
2023/02/19 02:30:25;;;;;;;3.00;1.93;;;11.10;82.10;;;;;;4939761;28;20431;-78
2023/02/19 02:33:25;;;;;;;4.20;2.67;;;11.00;83.10;;;;;;4962877;28;20434;-76
2023/02/19 02:35:55;;;;;;;3.80;2.97;;;10.80;84.70;;;;;;4958707;28;20467;-76
2023/02/19 02:38:26;;;;;;;5.10;2.90;;;10.70;85.70;;;;;;4963766;28;20467;-77
2023/02/19 02:40:54;;;;;;;3.23;2.20;;;10.60;86.30;;;;;;4935035;29;20443;-77
2023/02/19 02:43:20;;;;;;;3.80;2.60;;;10.60;86.80;;;;;;4934532;28;20435;-76
2023/02/19 02:45:45;;;;;;;4.20;2.60;;;10.50;86.90;;;;;;4951780;28;20534;-76
2023/02/19 02:48:15;;;;;;;3.90;2.50;;;10.50;86.80;;;;;;4944742;28;20231;-76
2023/02/19 02:50:54;;;;;;;3.63;2.60;;;10.50;86.00;;;;;;4941717;28;20192;-76
2023/02/19 02:56:15;;;;;;;5.83;2.70;;;10.60;85.50;;;;;;4942276;28;20507;-77
2023/02/19 02:58:42;;;;;;;3.37;2.13;;;10.60;84.70;;;;;;5018975;28;20511;-76
2023/02/19 03:04:01;;;;;;;2.57;1.97;;;10.70;84.00;;;;;;5023003;28;20479;-76
2023/02/19 03:06:30;;;;;;;2.57;1.80;;;10.70;83.80;;;;;;5029041;28;20416;-76
2023/02/19 03:09:03;;;;;;;3.80;2.10;;;10.70;83.80;;;;;;5029515;28;20427;-76
2023/02/19 03:20:04;;;;;;;3.57;2.10;;;10.80;85.30;;;;;;5024960;28;20434;-77
2023/02/19 03:22:33;;;;;;;2.93;2.10;;;10.50;86.30;;;;;;5009472;28;20464;-74
2023/02/19 03:27:51;;;;;;;5.33;2.43;;;10.40;88.40;;;;;;5029923;28;20469;-75
2023/02/19 03:30:26;;;;;;;3.50;2.23;;;10.10;89.50;;;;;;5032127;28;20742;-75
2023/02/19 03:32:57;;;;;;;4.50;2.60;;;10.00;90.10;;;;;;5021675;28;20411;-75
2023/02/19 03:35:27;;;;;;;3.03;1.97;;;10.00;90.70;;;;;;5023329;28;20487;-74
2023/02/19 03:38:30;;;;;;;3.60;2.00;;;9.90;91.00;;;;;;5029578;28;20504;-76
2023/02/19 03:41:06;;;;;;;2.70;2.10;;;9.80;91.30;;;;;;5029351;28;20412;-76
2023/02/19 03:44:07;;;;;;;3.40;2.20;;;9.70;91.50;;;;;;5022295;28;20420;-76
2023/02/19 03:46:52;;;;;;;3.13;1.97;;;9.80;91.80;;;;;;4973559;28;20474;-76
2023/02/19 03:49:43;;;;;;;3.07;2.00;;;9.80;91.90;;;;;;5013799;28;20419;-75
2023/02/19 03:52:37;;;;;;;5.67;2.23;;;9.70;92.00;;;;;;5025714;28;20419;-75
2023/02/19 03:55:06;;;;;;;3.93;2.10;;;9.70;92.30;;;;;;4978869;28;20466;-75
2023/02/19 03:57:52;;;;;;;3.33;2.50;;;9.60;92.40;;;;;;5024725;28;20514;-76
2023/02/19 04:00:44;;;;;;;2.63;2.00;;;9.60;92.60;;;;;;5028427;28;20514;-75
2023/02/19 04:03:12;;;;;;;4.30;2.30;;;9.50;92.60;;;;;;5027154;28;20459;-76
2023/02/19 04:05:44;;;;;;;3.30;2.37;;;9.60;92.70;;;;;;5029423;28;20512;-75
2023/02/19 04:08:19;;;;;;;3.37;2.23;;;9.60;92.70;;;;;;5028812;28;20434;-74
2023/02/19 04:10:46;;;;;;;2.97;2.27;;;9.60;92.70;;;;;;5040947;28;20427;-75
2023/02/19 04:13:33;;;;;;;3.70;2.20;;;9.70;92.60;;;;;;5043482;28;20419;-74
2023/02/19 04:16:05;;;;;;;3.53;2.00;;;9.70;92.40;;;;;;5022776;28;20533;-74
2023/02/19 04:18:35;;;;;;;2.37;1.90;;;9.70;92.20;;;;;;5042228;28;20416;-75
2023/02/19 04:21:02;;;;;;;2.80;1.90;;;9.80;91.90;;;;;;5046555;28;20431;-75
2023/02/19 04:23:34;;;;;;;3.03;1.80;;;9.80;91.50;;;;;;5040792;28;20424;-76
2023/02/19 04:26:01;;;;;;;4.17;1.93;;;9.80;91.20;;;;;;5037909;28;20472;-73
2023/02/19 04:28:28;;;;;;;1.90;1.50;;;9.80;91.00;;;;;;5036278;28;20427;-74
2023/02/19 04:30:53;;;;;;;1.80;1.30;;;9.90;90.90;;;;;;5031648;28;20419;-74
2023/02/19 04:33:19;;;;;;;2.10;1.50;;;9.80;90.30;;;;;;5026702;28;20415;-76
2023/02/19 04:35:44;;;;;;;4.67;1.57;;;9.90;90.40;;;;;;5031954;28;20209;-75
2023/02/19 04:38:11;;;;;;;1.90;1.20;;;9.90;90.30;;;;;;5035853;28;20201;-75
2023/02/19 04:40:36;;;;;;;1.73;1.30;;;10.00;90.20;;;;;;5032641;28;20280;-76
2023/02/19 04:43:02;;;;;;;2.20;1.10;;;9.90;90.10;;;;;;5032816;28;20636;-75
2023/02/19 04:45:27;;;;;;;1.87;1.30;;;9.90;90.30;;;;;;5030545;28;20216;-75
2023/02/19 04:47:53;;;;;;;1.37;1.10;;;9.90;90.20;;;;;;5038257;28;20216;-75
2023/02/19 04:50:19;;;;;;;1.53;1.00;;;9.90;90.00;;;;;;5034246;28;20566;-75
2023/02/19 04:52:44;;;;;;;1.40;1.00;;;9.90;90.10;;;;;;5033137;28;20244;-75
2023/02/19 04:55:10;;;;;;;1.27;1.00;;;9.90;89.90;;;;;;5025818;28;20205;-76
2023/02/19 04:57:35;;;;;;;1.37;0.80;;;9.90;89.70;;;;;;5031555;28;20196;-75
2023/02/19 05:00:01;;;;;;;1.40;0.90;;;10.00;89.60;;;;;;5038135;28;20193;-74
2023/02/19 05:02:27;;;;;;;1.47;0.90;;;9.90;89.60;;;;;;5034359;28;20566;-75
2023/02/19 05:04:52;;;;;;;1.37;1.00;;;9.90;89.50;;;;;;5038591;28;20490;-76
2023/02/19 05:07:18;;;;;;;1.37;0.80;;;9.90;89.30;;;;;;5034649;28;20181;-76
2023/02/19 05:09:44;;;;;;;0.90;0.70;;;10.00;89.30;;;;;;5010005;28;20558;-76
2023/02/19 05:12:09;;;;;;;1.20;0.70;;;10.00;88.70;;;;;;5025837;28;20584;-75
2023/02/19 05:14:35;;;;;;;1.10;0.70;;;10.00;88.60;;;;;;5027638;28;20583;-75
2023/02/19 05:17:00;;;;;;;1.60;0.97;;;10.10;88.60;;;;;;5029175;28;20552;-76
2023/02/19 05:19:26;;;;;;;1.77;0.83;;;10.10;88.30;;;;;;5027670;28;20356;-76
2023/02/19 05:21:51;;;;;;;0.80;0.70;;;10.10;88.00;;;;;;5031779;28;20205;-75
2023/02/19 05:24:17;;;;;;;0.90;0.73;;;10.20;87.70;;;;;;5024088;28;20210;-76
2023/02/19 05:26:43;;;;;;;1.00;0.77;;;10.20;87.40;;;;;;5029624;28;20198;-76
2023/02/19 05:29:08;;;;;;;1.10;0.80;;;10.20;87.40;;;;;;5028051;28;20181;-76
2023/02/19 05:31:34;;;;;;;2.47;1.27;;;10.30;87.00;;;;;;5032817;28;20652;-76
2023/02/19 05:33:59;;;;;;;1.27;0.50;;;10.20;86.60;;;;;;5027887;28;20253;-76
2023/02/19 05:36:25;;;;;;;0.80;0.60;;;10.30;86.50;;;;;;5028268;28;20652;-74
2023/02/19 05:38:55;;;;;;;0.80;0.63;;;10.30;86.30;;;;;;5031243;28;20200;-76
2023/02/19 05:41:24;;;;;;;0.80;0.50;;;10.30;85.70;;;;;;5028408;28;20209;-75
2023/02/19 05:43:50;;;;;;;1.10;0.80;;;10.30;85.70;;;;;;5021608;28;20423;-76
2023/02/19 05:46:18;;;;;;;0.70;0.60;;;10.30;85.90;;;;;;5028658;28;20951;-76
2023/02/19 05:48:44;;;;;;;1.13;0.70;;;10.40;85.60;;;;;;5022708;28;20435;-76
2023/02/19 05:51:12;;;;;;;0.77;0.57;;;10.30;85.20;;;;;;5027335;28;20431;-76
2023/02/19 05:53:39;;;;;;;1.87;0.80;;;10.30;85.00;;;;;;5027587;28;20510;-76
2023/02/19 05:56:24;;;;;;;0.70;0.50;;;10.30;84.90;;;;;;5021395;28;20444;-76
2023/02/19 05:58:50;;;;;;;0.80;0.60;;;10.40;84.60;;;;;;5011386;28;20431;-76
2023/02/19 06:01:17;;;;;;;1.00;0.50;;;10.40;83.40;;;;;;5029874;28;20467;-76
2023/02/19 06:03:43;;;;;;;0.80;0.57;;;10.40;83.70;;;;;;5006986;28;20177;-77
2023/02/19 06:06:14;;;;;;;1.00;0.70;;;10.20;83.70;;;;;;5029224;28;20457;-76
2023/02/19 06:08:39;;;;;;;0.60;0.50;;;10.30;84.00;;;;;;5039331;28;20269;-76
2023/02/19 06:11:05;;;;;;;0.93;0.57;;;10.10;83.80;;;;;;5027984;28;20444;-74
2023/02/19 06:13:31;;;;;;;0.70;0.50;;;10.00;84.70;;;;;;5032421;28;20663;-75
2023/02/19 06:15:56;;;;;;;0.53;0.40;;;10.10;85.30;;;;;;5030050;28;20185;-76
2023/02/19 06:18:22;;;;;;;1.17;0.50;;;10.00;85.50;;;;;;5034291;28;20189;-76
2023/02/19 06:20:47;;;;;;;1.70;0.57;;;10.00;86.00;;;;;;5028480;28;20181;-76
2023/02/19 06:23:14;;;;;;;0.70;0.50;;;10.00;86.30;;;;;;5030785;28;20676;-76
2023/02/19 06:25:40;;;;;;;0.70;0.50;;;10.00;86.50;;;;;;5025028;28;20231;-76
2023/02/19 06:28:05;;;;;;;1.30;0.67;;;9.90;86.00;;;;;;5031654;28;20423;-76
2023/02/19 06:30:31;;;;;;;0.67;0.53;;;9.90;85.70;;;;;;5031203;28;20178;-76
2023/02/19 06:32:56;;;;;;;2.43;0.60;;;9.70;85.50;;;;;;5030886;28;20234;-77
2023/02/19 06:35:22;;;;;;;0.70;0.53;;;9.70;85.20;;;;;;5025582;28;20217;-75
2023/02/19 06:37:48;;;;;;;1.00;0.60;;;9.70;84.70;;;;;;5032525;28;20672;-76
2023/02/19 06:40:15;;;;;;;0.70;0.60;;;9.70;85.00;;;;;;5028571;28;20185;-77
2023/02/19 06:42:40;;;;;;;0.60;0.50;;;9.70;84.60;;;;;;5012980;28;20494;-75
2023/02/19 06:45:06;;;;;;;0.73;0.60;;;9.70;84.60;;;;;;5027357;28;20994;-76
2023/02/19 06:47:32;;;;;;;1.10;0.57;;;9.60;84.70;;;;;;5033296;28;20184;-76
2023/02/19 06:49:59;;;;;;;0.70;0.50;;;9.70;85.00;;;;;;5030803;28;20412;-75
2023/02/19 06:52:25;;;;;;;0.70;0.50;;;9.70;84.90;;;;;;5030781;28;20464;-75
2023/02/19 06:54:51;;;;;;;1.97;0.77;;;9.70;84.30;;;;;;5019390;28;20922;-76
2023/02/19 06:57:17;;;;;;;1.47;0.83;;;9.70;83.60;;;;;;5033949;28;20420;-76
2023/02/19 06:59:43;;;;;;;0.70;0.50;;;9.70;82.80;;;;;;5025353;28;20268;-76
2023/02/19 07:02:11;;;;;;;1.90;0.70;;;9.80;83.00;;;;;;5033778;28;20559;-76
2023/02/19 07:04:37;;;;;;;2.53;0.87;;;9.90;83.10;;;;;;5026136;28;20204;-75
2023/02/19 07:07:03;;;;;;;0.93;0.60;;;9.80;81.80;;;;;;5027564;28;20412;-75
2023/02/19 07:09:28;;;;;;;1.20;0.80;;;9.90;81.40;;;;;;5024919;28;20679;-77
2023/02/19 07:11:54;;;;;;;1.53;0.80;;;9.90;80.60;;;;;;5034155;28;20432;-77
2023/02/19 07:14:20;;;;;;;3.20;1.00;;;9.90;81.10;;;;;;5021254;28;20215;-74
2023/02/19 07:16:46;;;;;;;3.93;0.90;;;9.80;81.20;;;;;;5038566;28;20189;-73
2023/02/19 07:19:13;;;;;;;1.37;0.90;;;9.80;81.10;;;;;;5041243;28;20433;-73
2023/02/19 07:21:41;;;;;;;1.20;0.80;;;9.90;81.10;;;;;;5033324;28;21024;-73
2023/02/19 07:24:08;;;;;;;1.10;0.90;;;9.80;81.50;;;;;;5022187;28;20470;-72
2023/02/19 07:26:34;;;;;;;1.20;0.80;;;9.80;81.90;;;;;;5025977;28;20411;-74
2023/02/19 07:29:00;;;;;;;2.03;1.00;;;9.70;82.20;;;;;;5027679;28;20424;-71
2023/02/19 07:31:27;;;;;;;2.50;1.70;;;9.70;81.90;;;;;;5029953;28;20452;-71
2023/02/19 07:33:52;;;;;;;1.40;1.00;;;9.70;81.80;;;;;;5027614;28;20678;-73
2023/02/19 07:36:19;;;;;;;3.33;1.83;;;9.70;81.50;;;;;;5030963;28;20446;-73
2023/02/19 07:38:45;;;;;;;1.43;0.90;;;9.70;81.20;;;;;;5027184;28;20439;-71
2023/02/19 07:41:12;;;;;;;1.20;0.90;;;9.80;81.40;;;;;;5024752;28;20416;-73
2023/02/19 07:43:38;;;;;;;2.33;1.30;;;9.80;80.50;;;;;;5024139;28;20428;-72
2023/02/19 07:46:10;;;;;;;4.40;1.50;;;9.90;80.30;;;;;;5022962;28;20439;-72
2023/02/19 07:48:36;;;;;;;1.90;1.00;;;9.90;78.70;;;;;;5014713;28;20430;-73
2023/02/19 07:51:04;;;;;;;3.73;1.50;;;10.00;78.60;;;;;;5036326;28;20423;-72
2023/02/19 07:53:30;;;;;;;2.53;1.50;;;10.10;78.40;;;;;;5036390;28;20415;-73
2023/02/19 07:56:00;;;;;;;1.73;1.30;;;10.00;77.60;;;;;;5025568;28;20459;-71
2023/02/19 07:58:26;;;;;;;2.00;1.30;;;10.10;77.60;;;;;;5035652;28;20420;-73
2023/02/19 08:00:52;;;;;;;1.90;1.40;;;10.20;77.30;;;;;;5026617;28;20435;-71
2023/02/19 08:03:17;;;;;;;2.20;1.57;;;10.20;77.40;;;;;;5023677;28;20499;-72
2023/02/19 08:05:43;;;;;;;1.93;1.17;;;10.20;77.10;;;;;;5028171;28;20302;-72
2023/02/19 08:08:11;;;;;;;1.90;1.27;;;10.20;76.70;;;;;;5030677;28;20212;-73
2023/02/19 08:13:24;;;;;;;2.10;1.30;;;10.20;76.40;;;;;;5031390;28;21255;-72
2023/02/19 08:15:53;;;;;;;1.97;1.37;;;10.30;75.80;;;;;;5026702;28;20842;-72
2023/02/19 08:18:22;;;;;;;1.57;1.20;;;10.40;75.80;;;;;;5029746;28;20435;-72
2023/02/19 08:20:48;;;;;;;2.73;1.30;;;10.40;75.10;;;;;;5027016;28;20430;-72
2023/02/19 08:23:14;;;;;;;1.97;0.93;;;10.60;75.20;;;;;;5029491;28;20479;-74
2023/02/19 08:25:40;;;;;;;2.50;1.13;;;10.70;74.90;;;;;;5030032;28;20267;-74
2023/02/19 08:28:07;;;;;;;1.60;1.07;;;10.70;74.50;;;;;;5036852;28;20498;-73
2023/02/19 08:30:33;;;;;;;1.53;1.20;;;10.70;74.30;;;;;;5029806;28;20423;-73
2023/02/19 08:33:00;;;;;;;2.00;1.10;;;10.60;75.10;;;;;;5031072;28;20431;-72
2023/02/19 08:35:26;;;;;;;2.20;1.20;;;10.60;75.90;;;;;;5024754;28;20990;-72
2023/02/19 08:37:55;;;;;;;2.23;1.20;;;10.50;75.90;;;;;;5029063;28;21306;-73
2023/02/19 08:40:21;;;;;;;2.57;1.87;;;10.50;76.10;;;;;;5025943;28;20443;-72
2023/02/19 08:42:47;;;;;;;2.73;1.53;;;10.50;76.40;;;;;;5036918;28;20475;-72
2023/02/19 08:45:12;;;;;;;1.63;1.40;;;10.40;77.00;;;;;;5033122;28;20464;-73
2023/02/19 08:47:38;;;;;;;1.90;0.90;;;10.40;76.70;;;;;;5045815;28;20569;-73
2023/02/19 08:50:05;;;;;;;1.00;0.90;;;10.40;76.80;;;;;;5031386;28;20190;-73
2023/02/19 08:52:31;;;;;;;1.37;1.10;;;10.40;76.80;;;;;;5043260;28;20420;-72
2023/02/19 08:54:57;;;;;;;1.50;1.10;;;10.40;76.40;;;;;;5036074;28;20482;-72
2023/02/19 08:57:22;;;;;;;1.40;0.87;;;10.30;77.00;;;;;;5040126;28;20223;-73
2023/02/19 08:59:48;;;;;;;1.80;1.10;;;10.20;77.40;;;;;;5038648;28;20280;-73
2023/02/19 09:02:14;;;;;;;1.17;0.90;;;10.20;77.30;;;;;;5033015;28;20209;-71
2023/02/19 09:04:39;;;;;;;3.10;1.63;;;10.20;77.30;;;;;;5024609;28;20233;-73
2023/02/19 09:07:09;;;;;;;1.43;0.90;;;10.40;77.70;;;;;;5011147;28;20181;-71
2023/02/19 09:09:38;;;;;;;6.70;1.00;;;10.30;77.10;;;;;;5025604;28;20178;-72
2023/02/19 09:12:06;;;;;;;1.50;1.20;;;10.20;77.60;;;;;;5026634;28;20642;-73
2023/02/19 09:14:33;;;;;;;2.23;1.57;;;10.30;77.60;;;;;;5008838;28;20554;-70
2023/02/19 09:16:59;;;;;;;1.97;1.13;;;10.30;77.00;;;;;;5024344;28;20428;-71
2023/02/19 09:19:25;;;;;;;3.03;1.37;;;10.30;76.50;;;;;;5035522;28;20530;-77
2023/02/19 09:21:50;;;;;;;1.50;1.23;;;10.30;76.50;;;;;;5035583;28;20523;-76
2023/02/19 09:24:16;;;;;;;3.70;1.33;;;10.30;76.40;;;;;;5031011;28;20511;-77
2023/02/19 09:26:41;;;;;;;2.40;1.33;;;10.50;76.40;;;;;;5031444;28;20211;-78
2023/02/19 09:29:07;;;;;;;1.73;1.30;;;10.50;75.70;;;;;;5031337;28;20227;-78
2023/02/19 09:31:33;;;;;;;4.67;1.53;;;10.60;75.20;;;;;;5035660;28;20185;-78
2023/02/19 09:33:59;;;;;;;4.70;1.50;;;10.60;74.50;;;;;;5028425;28;20216;-76
2023/02/19 09:36:25;;;;;;;3.77;1.17;;;10.60;74.30;;;;;;5039403;28;20443;-77
2023/02/19 09:38:51;;;;;;;4.37;1.47;;;10.60;73.30;;;;;;5037621;28;20432;-77
2023/02/19 09:41:36;;;;;;;2.60;1.30;;;10.60;73.30;;;;;;5016998;28;20193;-78
2023/02/19 09:44:04;;;;;;;4.40;1.77;;;10.80;72.40;;;;;;5034328;28;20212;-78
2023/02/19 09:46:43;;;;;;;1.77;1.23;;;10.70;71.40;;;;;;5016003;28;20933;-78
2023/02/19 09:49:25;;;;;;;1.90;1.30;;;10.70;71.70;;;;;;5051807;28;20423;-80
2023/02/19 09:51:59;;;;;;;2.13;1.53;;;10.70;71.40;;;;;;5037653;28;20425;-78
2023/02/19 09:54:30;;;;;;;1.67;1.27;;;10.70;71.40;;;;;;5010282;28;20468;-77
2023/02/19 09:56:58;;;;;;;1.93;1.27;;;10.80;71.30;;;;;;5055121;28;20450;-77
2023/02/19 09:59:45;;;;;;;8.70;2.13;;;10.90;71.00;;;;;;5058305;28;20450;-77
2023/02/19 10:02:15;;;;;;;3.50;1.20;;;10.90;70.80;;;;;;5034531;28;21027;-76
2023/02/19 10:04:43;;;;;;;4.27;1.70;;;10.90;71.00;;;;;;5039405;28;20455;-77
2023/02/19 10:07:14;;;;;;;2.30;1.00;;;11.10;70.40;;;;;;5041727;28;20464;-77
2023/02/19 10:09:40;;;;;;;2.90;1.20;;;11.10;69.80;;;;;;5043867;28;20435;-77
2023/02/19 10:12:22;;;;;;;4.50;1.40;;;11.20;69.20;;;;;;5020573;28;20494;-77
2023/02/19 10:14:51;;;;;;;2.10;1.10;;;11.20;69.70;;;;;;5045007;28;20219;-77
2023/02/19 10:17:30;;;;;;;6.80;1.50;;;11.30;69.40;;;;;;5043298;28;20420;-78
2023/02/19 10:19:56;;;;;;;3.67;1.33;;;11.40;69.20;;;;;;5039603;28;20433;-78
2023/02/19 10:22:23;;;;;;;6.30;1.40;;;11.40;69.20;;;;;;5062437;28;20463;-77
2023/02/19 10:24:53;;;;;;;2.87;1.17;;;11.20;69.80;;;;;;5034350;28;20835;-80
2023/02/19 10:27:19;;;;;;;1.97;1.30;;;11.30;70.10;;;;;;5057136;28;20439;-78
2023/02/19 10:29:47;;;;;;;4.10;1.53;;;11.50;70.10;;;;;;5054010;28;20423;-77
2023/02/19 10:32:22;;;;;;;2.00;1.33;;;11.40;69.70;;;;;;5036533;28;20424;-78
2023/02/19 10:35:06;;;;;;;2.60;1.30;;;11.30;70.40;;;;;;5025753;28;20466;-77
2023/02/19 10:37:32;;;;;;;3.17;1.20;;;11.30;70.40;;;;;;5019063;28;20431;-77
2023/02/19 10:39:57;;;;;;;2.50;1.23;;;11.40;70.70;;;;;;5050292;28;20424;-78
2023/02/19 10:42:24;;;;;;;4.37;1.00;;;11.40;70.20;;;;;;5055135;28;20485;-78
2023/02/19 10:45:00;;;;;;;4.97;1.57;;;11.40;70.70;;;;;;5052563;28;20209;-77
2023/02/19 10:47:28;;;;;;;1.87;0.90;;;11.20;70.80;;;;;;5048124;28;20447;-78
2023/02/19 10:49:57;;;;;;;4.80;1.50;;;11.20;71.00;;;;;;5049258;28;20454;-78
2023/02/19 10:52:26;;;;;;;3.40;1.30;;;11.20;71.40;;;;;;5052148;28;20880;-77
2023/02/19 10:54:55;;;;;;;1.63;1.03;;;11.20;71.10;;;;;;5030788;28;20479;-79
2023/02/19 10:57:29;;;;;;;3.67;1.50;;;11.40;71.10;;;;;;5038186;28;20427;-79
2023/02/19 10:59:57;;;;;;;1.97;1.23;;;11.50;70.80;;;;;;5023786;28;20444;-78
2023/02/19 11:02:23;;;;;;;2.73;1.30;;;11.50;70.40;;;;;;5034876;28;20471;-78
2023/02/19 11:05:04;;;;;;;2.33;1.33;;;11.40;70.20;;;;;;5010583;28;20551;-79
2023/02/19 11:07:30;;;;;;;3.37;1.30;;;11.60;70.50;;;;;;5040972;28;20426;-79
2023/02/19 11:09:57;;;;;;;2.23;1.30;;;11.80;69.90;;;;;;5037064;28;20466;-78
2023/02/19 11:12:25;;;;;;;3.40;1.30;;;11.80;68.90;;;;;;5041890;28;20997;-78
2023/02/19 11:14:51;;;;;;;3.97;1.20;;;11.80;69.10;;;;;;5048797;28;21013;-80
2023/02/19 11:17:28;;;;;;;4.50;1.43;;;11.90;68.80;;;;;;5036234;28;20441;-79
2023/02/19 11:20:08;;;;;;;2.67;1.37;;;12.00;68.90;;;;;;5042462;28;20234;-78
2023/02/19 11:22:40;;;;;;;3.90;1.40;;;12.00;68.60;;;;;;5031242;28;20464;-78
2023/02/19 11:25:08;;;;;;;4.57;1.70;;;12.00;68.80;;;;;;5036460;28;20463;-78
2023/02/19 11:27:34;;;;;;;3.67;1.47;;;12.00;68.60;;;;;;5029600;28;20919;-77
2023/02/19 11:30:32;;;;;;;1.80;1.33;;;12.00;68.80;;;;;;5033084;28;20582;-79
2023/02/19 11:33:20;;;;;;;2.23;1.13;;;12.00;68.50;;;;;;5014887;28;20450;-79
2023/02/19 11:35:48;;;;;;;3.53;1.33;;;11.90;68.90;;;;;;5017504;28;20493;-79
2023/02/19 11:38:16;;;;;;;1.97;1.10;;;11.90;68.90;;;;;;5033597;28;20444;-78
2023/02/19 11:41:18;;;;;;;2.00;1.33;;;11.90;68.80;;;;;;5044424;28;20430;-78
2023/02/19 11:43:57;;;;;;;2.60;1.10;;;11.80;68.90;;;;;;5036468;28;20433;-79
2023/02/19 11:46:30;;;;;;;2.73;1.30;;;11.60;69.40;;;;;;5051594;28;20423;-77
2023/02/19 11:49:18;;;;;;;2.13;1.10;;;11.40;70.10;;;;;;5048992;28;20434;-79
2023/02/19 11:51:57;;;;;;;4.33;1.47;;;11.20;71.40;;;;;;5018678;28;20427;-79
2023/02/19 11:54:31;;;;;;;3.70;1.40;;;11.40;72.10;;;;;;5047306;28;20539;-79
2023/02/19 11:57:15;;;;;;;2.63;1.10;;;11.50;71.40;;;;;;5031969;28;20442;-77
2023/02/19 11:59:41;;;;;;;3.93;1.33;;;11.60;70.80;;;;;;5028892;28;20430;-78
2023/02/19 12:02:28;;;;;;;2.40;1.37;;;11.60;70.80;;;;;;5039265;28;20471;-78
2023/02/19 12:05:15;;;;;;;2.27;1.50;;;11.70;70.70;;;;;;5014629;28;20212;-77
2023/02/19 12:08:23;;;;;;;3.60;1.40;;;11.90;70.50;;;;;;5045778;28;20419;-77
2023/02/19 12:11:17;;;;;;;4.30;1.40;;;11.80;70.20;;;;;;5031388;28;20600;-80
2023/02/19 12:13:54;;;;;;;2.23;1.10;;;11.90;69.70;;;;;;5024631;28;20421;-79
2023/02/19 12:16:23;;;;;;;1.87;1.23;;;11.80;69.40;;;;;;5035773;28;20855;-78
2023/02/19 12:19:02;;;;;;;4.57;1.60;;;11.80;69.70;;;;;;5046792;28;20440;-79
2023/02/19 12:21:43;;;;;;;3.60;1.60;;;11.80;69.20;;;;;;5035179;28;20527;-78
2023/02/19 12:24:23;;;;;;;5.70;1.77;;;11.90;69.10;;;;;;5032195;28;20456;-79
2023/02/19 12:27:04;;;;;;;4.40;1.20;;;11.90;68.90;;;;;;5040009;28;20812;-78
2023/02/19 12:29:49;;;;;;;3.20;1.53;;;12.20;68.50;;;;;;5030818;28;20447;-77
2023/02/19 12:32:45;;;;;;;2.17;1.40;;;12.40;67.90;;;;;;5027195;28;21124;-78
2023/02/19 12:35:25;;;;;;;2.93;1.27;;;12.40;67.50;;;;;;5044317;28;21149;-78
2023/02/19 12:38:04;;;;;;;5.87;1.50;;;12.40;67.60;;;;;;5022535;28;20528;-78
2023/02/19 12:41:09;;;;;;;2.57;1.50;;;12.30;67.90;;;;;;5025679;28;20447;-79
2023/02/19 12:43:39;;;;;;;3.83;1.40;;;12.30;68.20;;;;;;5045759;28;20430;-78
2023/02/19 12:46:14;;;;;;;2.03;1.20;;;12.40;67.70;;;;;;5031664;28;20416;-80
2023/02/19 12:48:59;;;;;;;3.20;1.37;;;12.40;67.70;;;;;;5049955;28;20458;-78
2023/02/19 12:51:46;;;;;;;2.40;1.20;;;12.70;67.50;;;;;;5056300;28;21644;-80
2023/02/19 12:54:43;;;;;;;3.07;1.90;;;12.60;66.90;;;;;;5038010;28;20445;-79
2023/02/19 12:57:23;;;;;;;4.60;2.00;;;12.60;67.30;;;;;;4993358;28;20449;-79
2023/02/19 12:59:52;;;;;;;3.73;1.43;;;12.70;67.20;;;;;;4994294;28;20434;-78
2023/02/19 13:02:26;;;;;;;6.10;1.83;;;12.50;66.60;;;;;;4991869;28;20549;-79
2023/02/19 13:05:01;;;;;;;4.37;1.43;;;12.50;67.20;;;;;;4977186;28;20458;-78
2023/02/19 13:07:35;;;;;;;3.27;1.60;;;12.50;67.20;;;;;;4972137;28;20445;-78
2023/02/19 13:10:32;;;;;;;3.73;1.00;;;12.50;67.00;;;;;;4983553;28;20455;-77
2023/02/19 13:13:04;;;;;;;1.70;1.40;;;12.20;67.30;;;;;;4986373;28;20499;-77
2023/02/19 13:15:43;;;;;;;2.70;1.40;;;12.00;68.30;;;;;;4970849;28;20462;-77
2023/02/19 13:18:29;;;;;;;3.87;1.27;;;11.80;68.50;;;;;;4990032;28;20791;-79
2023/02/19 13:20:55;;;;;;;4.57;1.90;;;11.50;69.50;;;;;;4985403;28;20430;-77
2023/02/19 13:26:42;;;;;;;2.10;1.20;;;11.60;68.90;;;;;;4981255;28;20411;-77
2023/02/19 13:29:31;;;;;;;3.07;1.60;;;11.60;68.90;;;;;;4978608;28;20498;-78
2023/02/19 13:32:25;;;;;;;5.23;1.60;;;11.50;69.40;;;;;;4978630;28;20446;-79
2023/02/19 13:35:09;;;;;;;4.90;1.97;;;11.50;69.40;;;;;;5045848;28;20523;-78